Private Wetterstation Sandau
Wetterdaten: Freitag, 14.12.2012
Datum Zeit Temp. A. Feuchte A. Luftdruck Regen Wind Richtung Richtung Taupunkt Windchill
14.12.2012 00:01 -4,1 C 90 % 1012,0 hPa 0,0 l/m 6,1 km/h (2 Bft) N-NO 22 -5,5 C -6,8 C
14.12.2012 00:06 -4,1 C 90 % 1012,1 hPa 0,0 l/m 13,3 km/h (3 Bft) N-NO 22 -5,5 C -9,1 C
14.12.2012 00:11 -4,1 C 90 % 1012,0 hPa 0,0 l/m 10,8 km/h (2 Bft) N-NO 22 -5,5 C -8,4 C
14.12.2012 00:16 -4,1 C 90 % 1012,0 hPa 0,0 l/m 10,8 km/h (2 Bft) N-NO 22 -5,5 C -8,4 C
14.12.2012 00:21 -4,1 C 90 % 1011,8 hPa 0,0 l/m 8,6 km/h (2 Bft) N-NO 22 -5,5 C -7,8 C
14.12.2012 00:26 -4,1 C 90 % 1011,9 hPa 0,0 l/m 7,2 km/h (2 Bft) N-NO 22 -5,5 C -7,3 C
14.12.2012 00:31 -4,1 C 90 % 1012,0 hPa 0,0 l/m 5,0 km/h (1 Bft) N-NO 22 -5,5 C -6,2 C
14.12.2012 00:36 -4,1 C 90 % 1012,0 hPa 0,0 l/m 2,2 km/h (1 Bft) N-NO 22 -5,5 C -4,1 C
14.12.2012 00:41 -4,1 C 90 % 1012,0 hPa 0,0 l/m 6,5 km/h (2 Bft) N-NO 22 -5,5 C -7,0 C
14.12.2012 00:46 -4,1 C 90 % 1011,7 hPa 0,0 l/m 6,8 km/h (2 Bft) N-NO 22 -5,5 C -7,1 C
14.12.2012 00:51 -4,1 C 90 % 1011,8 hPa 0,0 l/m 5,4 km/h (1 Bft) N-NO 22 -5,5 C -6,4 C
14.12.2012 00:56 -4,2 C 90 % 1011,8 hPa 0,0 l/m 9,4 km/h (2 Bft) N-NO 22 -5,6 C -8,1 C
14.12.2012 01:01 -4,3 C 89 % 1011,7 hPa 0,0 l/m 4,0 km/h (1 Bft) N-NO 22 -5,8 C -4,3 C
14.12.2012 01:06 -4,4 C 89 % 1011,7 hPa 0,0 l/m 9,4 km/h (2 Bft) N-NO 22 -5,9 C -8,4 C
14.12.2012 01:11 -4,4 C 89 % 1011,6 hPa 0,0 l/m 7,6 km/h (2 Bft) N-NO 22 -5,9 C -7,8 C
14.12.2012 01:16 -4,4 C 90 % 1011,7 hPa 0,0 l/m 9,7 km/h (2 Bft) N-NO 22 -5,8 C -8,5 C
14.12.2012 01:21 -4,4 C 90 % 1011,7 hPa 0,0 l/m 6,5 km/h (2 Bft) N-NO 22 -5,8 C -7,3 C
14.12.2012 01:26 -4,4 C 90 % 1011,7 hPa 0,0 l/m 4,3 km/h (1 Bft) N-NO 22 -5,8 C -4,4 C
14.12.2012 01:31 -4,4 C 90 % 1011,7 hPa 0,0 l/m 7,2 km/h (2 Bft) N-NO 22 -5,8 C -7,6 C
14.12.2012 01:36 -4,4 C 90 % 1011,7 hPa 0,0 l/m 13,0 km/h (3 Bft) N-NO 22 -5,8 C -9,4 C
14.12.2012 01:41 -4,4 C 90 % 1011,6 hPa 0,0 l/m 7,9 km/h (2 Bft) N-NO 22 -5,8 C -7,9 C
14.12.2012 01:46 -4,4 C 90 % 1011,6 hPa 0,0 l/m 6,1 km/h (2 Bft) N-NO 22 -5,8 C -7,1 C
14.12.2012 01:51 -4,4 C 90 % 1011,6 hPa 0,0 l/m 3,2 km/h (1 Bft) N-NO 22 -5,8 C -4,4 C
14.12.2012 01:56 -4,4 C 90 % 1011,6 hPa 0,0 l/m 4,7 km/h (1 Bft) N-NO 22 -5,8 C -6,4 C
14.12.2012 02:01 -4,4 C 90 % 1011,6 hPa 0,0 l/m 4,7 km/h (1 Bft) N-NO 22 -5,8 C -6,4 C
14.12.2012 02:06 -4,5 C 90 % 1011,6 hPa 0,0 l/m 8,6 km/h (2 Bft) N-NO 22 -5,9 C -8,2 C
14.12.2012 02:11 -4,5 C 90 % 1011,7 hPa 0,0 l/m 10,8 km/h (2 Bft) N-NO 22 -5,9 C -8,9 C
14.12.2012 02:16 -4,6 C 90 % 1011,7 hPa 0,0 l/m 5,8 km/h (2 Bft) N-NO 22 -6,0 C -7,2 C
14.12.2012 02:21 -4,6 C 90 % 1011,7 hPa 0,0 l/m 2,5 km/h (1 Bft) N-NO 22 -6,0 C -4,6 C
14.12.2012 02:26 -4,6 C 90 % 1011,5 hPa 0,0 l/m 8,6 km/h (2 Bft) N-NO 22 -6,0 C -8,4 C
14.12.2012 02:31 -4,6 C 90 % 1011,6 hPa 0,0 l/m 11,2 km/h (2 Bft) N-NO 22 -6,0 C -9,2 C
14.12.2012 02:36 -4,6 C 90 % 1011,5 hPa 0,0 l/m 6,1 km/h (2 Bft) N-NO 22 -6,0 C -7,4 C
14.12.2012 02:41 -4,6 C 90 % 1011,5 hPa 0,0 l/m 6,8 km/h (2 Bft) N-NO 22 -6,0 C -7,7 C
14.12.2012 02:46 -4,6 C 90 % 1011,6 hPa 0,0 l/m 4,7 km/h (1 Bft) N-NO 22 -6,0 C -6,6 C
14.12.2012 02:51 -4,5 C 90 % 1011,6 hPa 0,0 l/m 8,3 km/h (2 Bft) N-NO 22 -5,9 C -8,1 C
14.12.2012 02:56 -4,6 C 90 % 1011,7 hPa 0,0 l/m 4,3 km/h (1 Bft) N-NO 22 -6,0 C -4,6 C
14.12.2012 03:01 -4,6 C 90 % 1011,7 hPa 0,0 l/m 7,2 km/h (2 Bft) N-NO 22 -6,0 C -7,8 C
14.12.2012 03:06 -4,6 C 90 % 1011,6 hPa 0,0 l/m 10,8 km/h (2 Bft) N-NO 22 -6,0 C -9,0 C
14.12.2012 03:11 -4,6 C 90 % 1011,5 hPa 0,0 l/m 7,6 km/h (2 Bft) N-NO 22 -6,0 C -8,0 C
14.12.2012 03:16 -4,6 C 90 % 1011,4 hPa 0,0 l/m 9,0 km/h (2 Bft) N-NO 22 -6,0 C -8,5 C
14.12.2012 03:21 -4,6 C 90 % 1011,4 hPa 0,0 l/m 7,6 km/h (2 Bft) N-NO 22 -6,0 C -8,0 C
14.12.2012 03:26 -4,7 C 90 % 1011,4 hPa 0,0 l/m 3,2 km/h (1 Bft) N-NO 22 -6,1 C -4,7 C
14.12.2012 03:31 -4,7 C 89 % 1011,2 hPa 0,0 l/m 2,2 km/h (1 Bft) N-NO 22 -6,2 C -4,7 C
14.12.2012 03:36 -4,7 C 89 % 1011,0 hPa 0,0 l/m 6,1 km/h (2 Bft) N-NO 22 -6,2 C -7,5 C
14.12.2012 03:41 -4,7 C 89 % 1011,1 hPa 0,0 l/m 6,8 km/h (2 Bft) N-NO 22 -6,2 C -7,8 C
14.12.2012 03:46 -4,7 C 90 % 1010,9 hPa 0,0 l/m 7,6 km/h (2 Bft) N-NO 22 -6,1 C -8,1 C
14.12.2012 03:51 -4,7 C 90 % 1011,0 hPa 0,0 l/m 8,6 km/h (2 Bft) N-NO 22 -6,1 C -8,5 C
14.12.2012 03:56 -4,7 C 90 % 1010,8 hPa 0,0 l/m 6,8 km/h (2 Bft) N-NO 22 -6,1 C -7,8 C
14.12.2012 04:01 -4,7 C 89 % 1010,7 hPa 0,0 l/m 7,2 km/h (2 Bft) N-NO 22 -6,2 C -7,9 C
14.12.2012 04:06 -4,7 C 89 % 1010,6 hPa 0,0 l/m 7,2 km/h (2 Bft) N-NO 22 -6,2 C -7,9 C
14.12.2012 04:11 -4,6 C 90 % 1010,4 hPa 0,0 l/m 1,4 km/h (1 Bft) N-NO 22 -6,0 C -4,6 C
14.12.2012 04:16 -4,6 C 90 % 1010,7 hPa 0,0 l/m 6,5 km/h (2 Bft) N-NO 22 -6,0 C -7,5 C
14.12.2012 04:21 -4,5 C 90 % 1010,6 hPa 0,0 l/m 6,8 km/h (2 Bft) N-NO 22 -5,9 C -7,6 C
14.12.2012 04:26 -4,5 C 90 % 1010,6 hPa 0,0 l/m 3,6 km/h (1 Bft) N-NO 22 -5,9 C -4,5 C
14.12.2012 04:31 -4,5 C 89 % 1010,5 hPa 0,0 l/m 3,6 km/h (1 Bft) N-NO 22 -6,0 C -4,5 C
14.12.2012 04:36 -4,5 C 89 % 1010,5 hPa 0,0 l/m 8,6 km/h (2 Bft) N-NO 22 -6,0 C -8,2 C
14.12.2012 04:41 -4,5 C 89 % 1010,5 hPa 0,0 l/m 4,3 km/h (1 Bft) N-NO 22 -6,0 C -4,5 C
14.12.2012 04:46 -4,4 C 89 % 1010,5 hPa 0,0 l/m 5,0 km/h (1 Bft) N-NO 22 -5,9 C -6,6 C
14.12.2012 04:51 -4,4 C 89 % 1010,5 hPa 0,0 l/m 6,8 km/h (2 Bft) N-NO 22 -5,9 C -7,4 C
14.12.2012 04:56 -4,4 C 89 % 1010,5 hPa 0,0 l/m 6,5 km/h (2 Bft) N-NO 22 -5,9 C -7,3 C
14.12.2012 05:01 -4,2 C 89 % 1010,3 hPa 0,0 l/m 13,0 km/h (3 Bft) N-NO 22 -5,7 C -9,1 C
14.12.2012 05:06 -4,2 C 89 % 1010,3 hPa 0,0 l/m 9,7 km/h (2 Bft) N-NO 22 -5,7 C -8,2 C
14.12.2012 05:11 -4,2 C 89 % 1010,3 hPa 0,0 l/m 8,3 km/h (2 Bft) N-NO 22 -5,7 C -7,8 C
14.12.2012 05:16 -4,2 C 89 % 1010,3 hPa 0,0 l/m 9,4 km/h (2 Bft) N-NO 22 -5,7 C -8,1 C
14.12.2012 05:21 -4,2 C 89 % 1010,3 hPa 0,0 l/m 4,7 km/h (1 Bft) N-NO 22 -5,7 C -6,2 C
14.12.2012 05:26 -4,1 C 89 % 1010,4 hPa 0,0 l/m 10,8 km/h (2 Bft) N-NO 22 -5,6 C -8,4 C
14.12.2012 05:31 -4,1 C 89 % 1010,6 hPa 0,0 l/m 8,6 km/h (2 Bft) N-NO 22 -5,6 C -7,8 C
14.12.2012 05:36 -4,1 C 89 % 1010,5 hPa 0,0 l/m 8,3 km/h (2 Bft) N-NO 22 -5,6 C -7,7 C
14.12.2012 05:41 -3,9 C 89 % 1010,6 hPa 0,0 l/m 4,7 km/h (1 Bft) N-NO 22 -5,4 C -5,8 C
14.12.2012 05:46 -3,9 C 89 % 1010,3 hPa 0,0 l/m 2,2 km/h (1 Bft) N-NO 22 -5,4 C -3,9 C
14.12.2012 05:51 -3,8 C 89 % 1010,5 hPa 0,0 l/m 7,6 km/h (2 Bft) N-NO 22 -5,3 C -7,1 C
14.12.2012 05:56 -3,7 C 89 % 1010,5 hPa 0,0 l/m 9,7 km/h (2 Bft) N-NO 22 -5,2 C -7,6 C
14.12.2012 06:01 -3,6 C 89 % 1010,3 hPa 0,0 l/m 5,0 km/h (1 Bft) N-NO 22 -5,1 C -5,7 C
14.12.2012 06:06 -3,5 C 89 % 1010,2 hPa 0,0 l/m 9,4 km/h (2 Bft) N-NO 22 -5,0 C -7,3 C
14.12.2012 06:11 -3,5 C 89 % 1010,1 hPa 0,0 l/m 9,7 km/h (2 Bft) N-NO 22 -5,0 C -7,4 C
14.12.2012 06:16 -3,4 C 89 % 1010,0 hPa 0,0 l/m 9,0 km/h (2 Bft) N-NO 22 -4,9 C -7,1 C
14.12.2012 06:21 -3,3 C 89 % 1010,0 hPa 0,0 l/m 7,9 km/h (2 Bft) N-NO 22 -4,8 C -6,6 C
14.12.2012 06:26 -3,2 C 89 % 1010,1 hPa 0,0 l/m 11,9 km/h (2 Bft) N-NO 22 -4,7 C -7,7 C
14.12.2012 06:31 -3,2 C 89 % 1010,0 hPa 0,0 l/m 4,0 km/h (1 Bft) N-NO 22 -4,7 C -3,2 C
14.12.2012 06:36 -3,1 C 89 % 1009,9 hPa 0,0 l/m 13,0 km/h (3 Bft) N-NO 22 -4,6 C -7,8 C
14.12.2012 06:41 -3,1 C 89 % 1010,0 hPa 0,0 l/m 5,0 km/h (1 Bft) N-NO 22 -4,6 C -5,1 C
14.12.2012 06:46 -3,0 C 88 % 1009,9 hPa 0,0 l/m 5,8 km/h (2 Bft) N-NO 22 -4,7 C -5,4 C
14.12.2012 06:51 -3,0 C 88 % 1009,9 hPa 0,0 l/m 5,0 km/h (1 Bft) N-NO 22 -4,7 C -5,0 C
14.12.2012 06:56 -2,9 C 88 % 1010,0 hPa 0,0 l/m 6,1 km/h (2 Bft) N-NO 22 -4,6 C -5,4 C
14.12.2012 07:01 -2,9 C 88 % 1010,1 hPa 0,0 l/m 4,3 km/h (1 Bft) N-NO 22 -4,6 C -2,9 C
14.12.2012 07:06 -2,8 C 88 % 1010,1 hPa 0,0 l/m 7,6 km/h (2 Bft) N-NO 22 -4,5 C -5,9 C
14.12.2012 07:11 -2,8 C 88 % 1010,2 hPa 0,0 l/m 3,6 km/h (1 Bft) N-NO 22 -4,5 C -2,8 C
14.12.2012 07:16 -2,8 C 88 % 1010,2 hPa 0,0 l/m 7,9 km/h (2 Bft) N-NO 22 -4,5 C -6,0 C
14.12.2012 07:21 -2,7 C 88 % 1010,3 hPa 0,0 l/m 9,4 km/h (2 Bft) N-NO 22 -4,4 C -6,4 C
14.12.2012 07:26 -2,7 C 89 % 1010,3 hPa 0,0 l/m 11,2 km/h (2 Bft) N-NO 22 -4,3 C -6,9 C
14.12.2012 07:31 -2,7 C 89 % 1010,2 hPa 0,0 l/m 16,2 km/h (3 Bft) N-NO 22 -4,3 C -8,0 C
14.12.2012 07:36 -2,7 C 89 % 1010,1 hPa 0,0 l/m 6,8 km/h (2 Bft) N-NO 22 -4,3 C -5,5 C
14.12.2012 07:41 -2,7 C 89 % 1010,3 hPa 0,0 l/m 6,1 km/h (2 Bft) N-NO 22 -4,3 C -5,2 C
14.12.2012 07:46 -2,7 C 89 % 1010,4 hPa 0,0 l/m 8,3 km/h (2 Bft) N-NO 22 -4,3 C -6,0 C
14.12.2012 07:51 -2,7 C 89 % 1010,3 hPa 0,0 l/m 11,2 km/h (2 Bft) N-NO 22 -4,3 C -6,9 C
14.12.2012 07:56 -2,6 C 89 % 1010,3 hPa 0,0 l/m 9,4 km/h (2 Bft) N-NO 22 -4,2 C -6,2 C
14.12.2012 08:01 -2,6 C 89 % 1010,4 hPa 0,0 l/m 10,4 km/h (2 Bft) N-NO 22 -4,2 C -6,5 C
14.12.2012 08:06 -2,6 C 89 % 1010,3 hPa 0,0 l/m 10,1 km/h (2 Bft) N-NO 22 -4,2 C -6,4 C
14.12.2012 08:11 -2,6 C 89 % 1010,2 hPa 0,0 l/m 15,1 km/h (3 Bft) N-NO 22 -4,2 C -7,6 C
14.12.2012 08:16 -2,6 C 89 % 1010,4 hPa 0,0 l/m 11,2 km/h (2 Bft) N-NO 22 -4,2 C -6,7 C
14.12.2012 08:21 -2,6 C 89 % 1010,2 hPa 0,0 l/m 8,6 km/h (2 Bft) N-NO 22 -4,2 C -6,0 C
14.12.2012 08:26 -2,6 C 89 % 1010,2 hPa 0,0 l/m 6,8 km/h (2 Bft) N-NO 22 -4,2 C -5,3 C
14.12.2012 08:31 -2,5 C 89 % 1010,4 hPa 0,0 l/m 5,0 km/h (1 Bft) N-NO 22 -4,1 C -4,4 C
14.12.2012 08:36 -2,5 C 89 % 1010,3 hPa 0,0 l/m 8,6 km/h (2 Bft) N-NO 22 -4,1 C -5,9 C
14.12.2012 08:41 -2,5 C 89 % 1010,6 hPa 0,0 l/m 7,6 km/h (2 Bft) N-NO 22 -4,1 C -5,5 C
14.12.2012 08:46 -2,5 C 89 % 1010,6 hPa 0,0 l/m 3,2 km/h (1 Bft) N-NO 22 -4,1 C -2,5 C
14.12.2012 08:51 -2,4 C 89 % 1010,6 hPa 0,0 l/m 7,2 km/h (2 Bft) N-NO 22 -4,0 C -5,3 C
14.12.2012 08:56 -2,4 C 89 % 1010,3 hPa 0,0 l/m 6,1 km/h (2 Bft) N-NO 22 -4,0 C -4,8 C
14.12.2012 09:01 -2,4 C 89 % 1010,3 hPa 0,0 l/m 11,2 km/h (2 Bft) N-NO 22 -4,0 C -6,5 C
14.12.2012 09:06 -2,4 C 89 % 1010,2 hPa 0,0 l/m 11,5 km/h (2 Bft) N-NO 22 -4,0 C -6,6 C
14.12.2012 09:11 -2,4 C 89 % 1010,3 hPa 0,0 l/m 6,8 km/h (2 Bft) N-NO 22 -4,0 C -5,1 C
14.12.2012 09:16 -2,3 C 89 % 1010,2 hPa 0,0 l/m 6,8 km/h (2 Bft) N-NO 22 -3,9 C -5,0 C
14.12.2012 09:21 -2,2 C 89 % 1010,2 hPa 0,0 l/m 7,2 km/h (2 Bft) N-NO 22 -3,8 C -5,0 C
14.12.2012 09:26 -2,2 C 89 % 1010,2 hPa 0,0 l/m 4,7 km/h (1 Bft) N-NO 22 -3,8 C -3,9 C
14.12.2012 09:31 -2,1 C 89 % 1010,2 hPa 0,0 l/m 2,5 km/h (1 Bft) N-NO 22 -3,7 C -2,1 C
14.12.2012 09:36 -2,1 C 89 % 1010,2 hPa 0,0 l/m 12,2 km/h (2 Bft) N-NO 22 -3,7 C -6,4 C
14.12.2012 09:41 -2,1 C 89 % 1010,1 hPa 0,0 l/m 11,2 km/h (2 Bft) N-NO 22 -3,7 C -6,1 C
14.12.2012 09:46 -2,1 C 89 % 1010,2 hPa 0,0 l/m 3,6 km/h (1 Bft) N-NO 22 -3,7 C -2,1 C
14.12.2012 09:51 -1,9 C 89 % 1010,1 hPa 0,0 l/m 2,9 km/h (1 Bft) N-NO 22 -3,5 C -1,9 C
14.12.2012 09:56 -1,9 C 89 % 1010,2 hPa 0,0 l/m 4,0 km/h (1 Bft) N-NO 22 -3,5 C -1,9 C
14.12.2012 10:01 -1,8 C 89 % 1010,1 hPa 0,0 l/m 6,1 km/h (2 Bft) N-NO 22 -3,4 C -4,1 C
14.12.2012 10:06 -1,8 C 89 % 1010,0 hPa 0,0 l/m 14,8 km/h (3 Bft) N-NO 22 -3,4 C -6,6 C
14.12.2012 10:11 -1,7 C 89 % 1010,2 hPa 0,0 l/m 4,7 km/h (1 Bft) N-NO 22 -3,3 C -3,4 C
14.12.2012 10:16 -1,6 C 89 % 1010,2 hPa 0,0 l/m 7,6 km/h (2 Bft) N-NO 22 -3,2 C -4,5 C
14.12.2012 10:21 -1,5 C 89 % 1010,0 hPa 0,0 l/m 6,8 km/h (2 Bft) N-NO 22 -3,1 C -4,1 C
14.12.2012 10:26 -1,5 C 89 % 1009,9 hPa 0,0 l/m 11,9 km/h (2 Bft) N-NO 22 -3,1 C -5,6 C
14.12.2012 10:31 -1,5 C 88 % 1009,9 hPa 0,0 l/m 5,8 km/h (2 Bft) N-NO 22 -3,2 C -3,7 C
14.12.2012 10:36 -1,3 C 88 % 1009,8 hPa 0,0 l/m 9,7 km/h (2 Bft) N-NO 22 -3,0 C -4,8 C
14.12.2012 10:41 -1,3 C 88 % 1010,0 hPa 0,0 l/m 4,0 km/h (1 Bft) N-NO 22 -3,0 C -1,3 C
14.12.2012 10:46 -1,2 C 88 % 1009,8 hPa 0,0 l/m 9,7 km/h (2 Bft) N-NO 22 -2,9 C -4,7 C
14.12.2012 10:51 -1,1 C 88 % 1009,9 hPa 0,0 l/m 5,8 km/h (2 Bft) N-NO 22 -2,8 C -3,2 C
14.12.2012 10:56 -1,1 C 88 % 1009,8 hPa 0,0 l/m 7,6 km/h (2 Bft) N-NO 22 -2,8 C -3,9 C
14.12.2012 11:01 -0,8 C 88 % 1009,9 hPa 0,0 l/m 7,6 km/h (2 Bft) N-NO 22 -2,5 C -3,5 C
14.12.2012 11:06 -0,7 C 88 % 1009,9 hPa 0,0 l/m 3,2 km/h (1 Bft) N-NO 22 -2,4 C -0,7 C
14.12.2012 11:11 -0,8 C 87 % 1009,9 hPa 0,0 l/m 5,4 km/h (1 Bft) N-NO 22 -2,7 C -2,7 C
14.12.2012 11:16 -0,9 C 87 % 1009,8 hPa 0,0 l/m 4,7 km/h (1 Bft) N-NO 22 -2,8 C -2,5 C
14.12.2012 11:21 -0,9 C 87 % 1009,5 hPa 0,0 l/m 5,4 km/h (1 Bft) N-NO 22 -2,8 C -2,8 C
14.12.2012 11:26 -0,8 C 87 % 1009,7 hPa 0,0 l/m 13,7 km/h (3 Bft) N-NO 22 -2,7 C -5,1 C
14.12.2012 11:31 -0,9 C 87 % 1009,6 hPa 0,0 l/m 4,0 km/h (1 Bft) N-NO 22 -2,8 C -0,9 C
14.12.2012 11:36 -0,7 C 87 % 1009,6 hPa 0,0 l/m 7,2 km/h (2 Bft) N-NO 22 -2,6 C -3,3 C
14.12.2012 11:41 -0,6 C 87 % 1009,5 hPa 0,0 l/m 12,6 km/h (3 Bft) N-NO 22 -2,5 C -4,7 C
14.12.2012 11:46 -0,6 C 87 % 1009,4 hPa 0,0 l/m 7,6 km/h (2 Bft) N-NO 22 -2,5 C -3,3 C
14.12.2012 11:51 -0,6 C 87 % 1009,3 hPa 0,0 l/m 8,3 km/h (2 Bft) N-NO 22 -2,5 C -3,5 C
14.12.2012 11:56 -0,6 C 87 % 1009,3 hPa 0,0 l/m 6,5 km/h (2 Bft) N-NO 22 -2,5 C -2,9 C
14.12.2012 12:01 -0,5 C 87 % 1009,4 hPa 0,0 l/m 16,2 km/h (3 Bft) N-NO 22 -2,4 C -5,3 C
14.12.2012 12:06 -0,4 C 87 % 1009,3 hPa 0,0 l/m 3,2 km/h (1 Bft) N-NO 22 -2,3 C -0,4 C
14.12.2012 12:11 -0,4 C 87 % 1009,3 hPa 0,0 l/m 7,6 km/h (2 Bft) N-NO 22 -2,3 C -3,1 C
14.12.2012 12:16 -0,4 C 86 % 1009,1 hPa 0,0 l/m 9,0 km/h (2 Bft) N-NO 22 -2,4 C -3,5 C
14.12.2012 12:21 -0,4 C 86 % 1009,0 hPa 0,0 l/m 9,7 km/h (2 Bft) N-NO 22 -2,4 C -3,7 C
14.12.2012 12:26 -0,4 C 86 % 1008,9 hPa 0,0 l/m 8,3 km/h (2 Bft) N-NO 22 -2,4 C -3,3 C
14.12.2012 12:31 -0,4 C 86 % 1009,0 hPa 0,0 l/m 12,6 km/h (3 Bft) N-NO 22 -2,4 C -4,4 C
14.12.2012 12:36 -0,4 C 86 % 1008,8 hPa 0,0 l/m 8,6 km/h (2 Bft) N-NO 22 -2,4 C -3,4 C
14.12.2012 12:41 -0,4 C 86 % 1008,7 hPa 0,0 l/m 9,7 km/h (2 Bft) N-NO 22 -2,4 C -3,7 C
14.12.2012 12:46 -0,5 C 87 % 1008,7 hPa 0,0 l/m 8,3 km/h (2 Bft) N-NO 22 -2,4 C -3,4 C
14.12.2012 12:51 -0,4 C 87 % 1008,5 hPa 0,0 l/m 6,5 km/h (2 Bft) N-NO 22 -2,3 C -2,7 C
14.12.2012 12:56 -0,3 C 87 % 1008,7 hPa 0,0 l/m 9,7 km/h (2 Bft) N-NO 22 -2,2 C -3,6 C
14.12.2012 13:01 -0,2 C 86 % 1008,6 hPa 0,0 l/m 4,7 km/h (1 Bft) N-NO 22 -2,3 C -1,7 C
14.12.2012 13:06 -0,2 C 86 % 1008,6 hPa 0,0 l/m 6,1 km/h (2 Bft) N-NO 22 -2,3 C -2,3 C
14.12.2012 13:11 -0,1 C 86 % 1008,6 hPa 0,0 l/m 6,5 km/h (2 Bft) N-NO 22 -2,2 C -2,3 C
14.12.2012 13:16 -0,1 C 86 % 1008,4 hPa 0,0 l/m 5,8 km/h (2 Bft) N-NO 22 -2,2 C -2,1 C
14.12.2012 13:21 -0,1 C 86 % 1008,2 hPa 0,0 l/m 13,3 km/h (3 Bft) N-NO 22 -2,2 C -4,2 C
14.12.2012 13:26 0,1 C 86 % 1008,2 hPa 0,0 l/m 6,1 km/h (2 Bft) NO 45 -2,0 C -1,9 C
14.12.2012 13:31 0,1 C 86 % 1008,4 hPa 0,0 l/m 16,9 km/h (3 Bft) NO 45 -2,0 C -4,6 C
14.12.2012 13:36 -0,1 C 85 % 1008,0 hPa 0,0 l/m 6,1 km/h (2 Bft) NO 45 -2,3 C -2,2 C
14.12.2012 13:41 -0,1 C 85 % 1008,1 hPa 0,0 l/m 6,5 km/h (2 Bft) NO 45 -2,3 C -2,3 C
14.12.2012 13:46 -0,1 C 85 % 1008,0 hPa 0,0 l/m 5,4 km/h (1 Bft) NO 45 -2,3 C -1,9 C
14.12.2012 13:51 -0,2 C 86 % 1007,9 hPa 0,0 l/m 6,8 km/h (2 Bft) NO 45 -2,3 C -2,6 C
14.12.2012 13:56 -0,2 C 86 % 1008,0 hPa 0,0 l/m 8,3 km/h (2 Bft) NO 45 -2,3 C -3,1 C
14.12.2012 14:01 -0,4 C 86 % 1007,9 hPa 0,0 l/m 7,6 km/h (2 Bft) NO 45 -2,4 C -3,1 C
14.12.2012 14:06 -0,4 C 86 % 1008,0 hPa 0,0 l/m 3,6 km/h (1 Bft) NO 45 -2,4 C -0,4 C
14.12.2012 14:11 -0,4 C 86 % 1007,9 hPa 0,0 l/m 4,7 km/h (1 Bft) NO 45 -2,4 C -1,9 C
14.12.2012 14:16 -0,4 C 86 % 1007,9 hPa 0,0 l/m 8,3 km/h (2 Bft) NO 45 -2,4 C -3,3 C
14.12.2012 14:21 -0,4 C 86 % 1008,2 hPa 0,0 l/m 7,6 km/h (2 Bft) NO 45 -2,4 C -3,1 C
14.12.2012 14:26 -0,4 C 86 % 1008,0 hPa 0,0 l/m 8,6 km/h (2 Bft) NO 45 -2,4 C -3,4 C
14.12.2012 14:31 -0,4 C 86 % 1008,1 hPa 0,0 l/m 10,4 km/h (2 Bft) NO 45 -2,4 C -3,9 C
14.12.2012 14:36 -0,5 C 86 % 1008,0 hPa 0,0 l/m 2,5 km/h (1 Bft) NO 45 -2,5 C -0,5 C
14.12.2012 14:41 -0,5 C 86 % 1007,9 hPa 0,0 l/m 4,7 km/h (1 Bft) NO 45 -2,5 C -2,0 C
14.12.2012 14:46 -0,6 C 86 % 1008,0 hPa 0,0 l/m 9,4 km/h (2 Bft) NO 45 -2,6 C -3,9 C
14.12.2012 14:51 -0,7 C 86 % 1007,7 hPa 0,0 l/m 6,1 km/h (2 Bft) NO 45 -2,7 C -2,9 C
14.12.2012 14:56 -0,7 C 86 % 1007,6 hPa 0,0 l/m 11,9 km/h (2 Bft) NO 45 -2,7 C -4,6 C
14.12.2012 15:01 -0,7 C 86 % 1007,8 hPa 0,0 l/m 10,4 km/h (2 Bft) NO 45 -2,7 C -4,3 C
14.12.2012 15:06 -0,8 C 86 % 1007,6 hPa 0,0 l/m 4,7 km/h (1 Bft) NO 45 -2,8 C -2,3 C
14.12.2012 15:11 -0,8 C 87 % 1007,4 hPa 0,0 l/m 4,7 km/h (1 Bft) NO 45 -2,7 C -2,3 C
14.12.2012 15:16 -0,9 C 87 % 1007,4 hPa 0,0 l/m 7,2 km/h (2 Bft) NO 45 -2,8 C -3,5 C
14.12.2012 15:21 -0,8 C 87 % 1007,3 hPa 0,0 l/m 7,6 km/h (2 Bft) NO 45 -2,7 C -3,5 C
14.12.2012 15:26 -0,8 C 87 % 1007,6 hPa 0,0 l/m 4,7 km/h (1 Bft) NO 45 -2,7 C -2,3 C
14.12.2012 15:31 -0,9 C 87 % 1007,4 hPa 0,0 l/m 6,1 km/h (2 Bft) NO 45 -2,8 C -3,1 C
14.12.2012 15:36 -1,1 C 87 % 1007,2 hPa 0,0 l/m 9,7 km/h (2 Bft) NO 45 -3,0 C -4,5 C
14.12.2012 15:41 -1,1 C 87 % 1007,2 hPa 0,0 l/m 8,3 km/h (2 Bft) NO 45 -3,0 C -4,1 C
14.12.2012 15:46 -1,2 C 87 % 1007,1 hPa 0,0 l/m 12,2 km/h (2 Bft) NO 45 -3,1 C -5,3 C
14.12.2012 15:51 -1,3 C 87 % 1006,9 hPa 0,0 l/m 10,1 km/h (2 Bft) NO 45 -3,2 C -4,9 C
14.12.2012 15:56 -1,4 C 87 % 1006,7 hPa 0,0 l/m 13,7 km/h (3 Bft) NO 45 -3,3 C -5,9 C
14.12.2012 16:01 -1,4 C 87 % 1006,7 hPa 0,0 l/m 18,0 km/h (3 Bft) NO 45 -3,3 C -6,7 C
14.12.2012 16:06 -1,5 C 87 % 1006,8 hPa 0,0 l/m 16,6 km/h (3 Bft) NO 45 -3,4 C -6,6 C
14.12.2012 16:11 -1,5 C 87 % 1006,6 hPa 0,0 l/m 9,4 km/h (2 Bft) NO 45 -3,4 C -4,9 C
14.12.2012 16:16 -1,5 C 87 % 1006,7 hPa 0,0 l/m 8,6 km/h (2 Bft) NO 45 -3,4 C -4,7 C
14.12.2012 16:21 -1,5 C 87 % 1006,6 hPa 0,0 l/m 10,4 km/h (2 Bft) NO 45 -3,4 C -5,2 C
14.12.2012 16:26 -1,6 C 87 % 1006,6 hPa 0,0 l/m 11,5 km/h (2 Bft) NO 45 -3,5 C -5,6 C
14.12.2012 16:31 -1,7 C 87 % 1006,4 hPa 0,0 l/m 10,8 km/h (2 Bft) NO 45 -3,6 C -5,6 C
14.12.2012 16:36 -1,8 C 87 % 1006,3 hPa 0,0 l/m 14,4 km/h (3 Bft) NO 45 -3,7 C -6,5 C
14.12.2012 16:41 -1,9 C 87 % 1006,3 hPa 0,0 l/m 16,6 km/h (3 Bft) NO 45 -3,8 C -7,1 C
14.12.2012 16:46 -1,9 C 88 % 1006,4 hPa 0,0 l/m 8,3 km/h (2 Bft) NO 45 -3,6 C -5,1 C
14.12.2012 16:51 -1,9 C 88 % 1006,2 hPa 0,0 l/m 16,9 km/h (3 Bft) NO 45 -3,6 C -7,1 C
14.12.2012 16:56 -1,9 C 88 % 1006,0 hPa 0,0 l/m 7,6 km/h (2 Bft) NO 45 -3,6 C -4,8 C
14.12.2012 17:01 -2,1 C 88 % 1005,9 hPa 0,0 l/m 10,1 km/h (2 Bft) NO 45 -3,8 C -5,9 C
14.12.2012 17:06 -2,1 C 88 % 1005,9 hPa 0,0 l/m 13,0 km/h (3 Bft) NO 45 -3,8 C -6,6 C
14.12.2012 17:11 -2,1 C 88 % 1005,8 hPa 0,0 l/m 14,8 km/h (3 Bft) NO 45 -3,8 C -7,0 C
14.12.2012 17:16 -2,1 C 88 % 1005,8 hPa 0,0 l/m 13,3 km/h (3 Bft) NO 45 -3,8 C -6,6 C
14.12.2012 17:21 -2,0 C 88 % 1005,7 hPa 0,0 l/m 6,1 km/h (2 Bft) NO 45 -3,7 C -4,4 C
14.12.2012 17:26 -1,9 C 88 % 1005,5 hPa 0,0 l/m 7,2 km/h (2 Bft) NO 45 -3,6 C -4,7 C
14.12.2012 17:31 -1,9 C 88 % 1005,5 hPa 0,0 l/m 10,1 km/h (2 Bft) NO 45 -3,6 C -5,6 C
14.12.2012 17:36 -1,9 C 88 % 1005,4 hPa 0,0 l/m 11,2 km/h (2 Bft) NO 45 -3,6 C -5,9 C
14.12.2012 17:41 -1,8 C 88 % 1005,6 hPa 0,0 l/m 13,7 km/h (3 Bft) NO 45 -3,5 C -6,4 C
14.12.2012 17:46 -1,8 C 88 % 1005,4 hPa 0,0 l/m 10,1 km/h (2 Bft) NO 45 -3,5 C -5,5 C
14.12.2012 17:51 -1,8 C 88 % 1005,4 hPa 0,0 l/m 6,5 km/h (2 Bft) NO 45 -3,5 C -4,3 C
14.12.2012 17:56 -1,8 C 88 % 1005,2 hPa 0,0 l/m 15,1 km/h (3 Bft) NO 45 -3,5 C -6,7 C
14.12.2012 18:01 -1,7 C 88 % 1005,1 hPa 0,0 l/m 4,7 km/h (1 Bft) NO 45 -3,4 C -3,4 C
14.12.2012 18:06 -1,7 C 88 % 1005,1 hPa 0,0 l/m 11,5 km/h (2 Bft) NO 45 -3,4 C -5,7 C
14.12.2012 18:11 -1,7 C 88 % 1005,1 hPa 0,0 l/m 10,1 km/h (2 Bft) NO 45 -3,4 C -5,4 C
14.12.2012 18:16 -1,6 C 87 % 1004,9 hPa 0,0 l/m 12,6 km/h (3 Bft) NO 45 -3,5 C -5,9 C
14.12.2012 18:21 -1,6 C 87 % 1004,8 hPa 0,0 l/m 5,8 km/h (2 Bft) NO 45 -3,5 C -3,8 C
14.12.2012 18:26 -1,6 C 87 % 1004,5 hPa 0,0 l/m 9,7 km/h (2 Bft) NO 45 -3,5 C -5,1 C
14.12.2012 18:31 -1,5 C 87 % 1004,6 hPa 0,0 l/m 16,2 km/h (3 Bft) NO 45 -3,4 C -6,5 C
14.12.2012 18:36 -1,5 C 87 % 1004,6 hPa 0,0 l/m 18,0 km/h (3 Bft) NO 45 -3,4 C -6,8 C
14.12.2012 18:41 -1,4 C 87 % 1004,5 hPa 0,0 l/m 11,2 km/h (2 Bft) NO 45 -3,3 C -5,3 C
14.12.2012 18:46 -1,4 C 87 % 1004,4 hPa 0,0 l/m 13,7 km/h (3 Bft) NO 45 -3,3 C -5,9 C
14.12.2012 18:51 -1,4 C 87 % 1004,2 hPa 0,0 l/m 5,0 km/h (1 Bft) NO 45 -3,3 C -3,2 C
14.12.2012 18:56 -1,3 C 87 % 1004,1 hPa 0,0 l/m 7,2 km/h (2 Bft) NO 45 -3,2 C -4,0 C
14.12.2012 19:01 -1,3 C 86 % 1004,2 hPa 0,0 l/m 11,9 km/h (2 Bft) NO 45 -3,3 C -5,4 C
14.12.2012 19:06 -1,3 C 86 % 1004,1 hPa 0,0 l/m 10,8 km/h (2 Bft) NO 45 -3,3 C -5,1 C
14.12.2012 19:11 -1,4 C 86 % 1004,0 hPa 0,0 l/m 16,9 km/h (3 Bft) NO 45 -3,4 C -6,5 C
14.12.2012 19:16 -1,4 C 86 % 1003,8 hPa 0,0 l/m 8,3 km/h (2 Bft) NO 45 -3,4 C -4,5 C
14.12.2012 19:21 -1,3 C 87 % 1003,7 hPa 0,0 l/m 5,0 km/h (1 Bft) NO 45 -3,2 C -3,1 C
14.12.2012 19:26 -1,3 C 86 % 1003,7 hPa 0,0 l/m 13,7 km/h (3 Bft) NO 45 -3,3 C -5,8 C
14.12.2012 19:31 -1,2 C 86 % 1003,8 hPa 0,0 l/m 13,0 km/h (3 Bft) NO 45 -3,2 C -5,5 C
14.12.2012 19:36 -1,2 C 86 % 1003,5 hPa 0,0 l/m 7,2 km/h (2 Bft) NO 45 -3,2 C -3,9 C
14.12.2012 19:41 -1,2 C 86 % 1003,5 hPa 0,0 l/m 3,6 km/h (1 Bft) NO 45 -3,2 C -1,2 C
14.12.2012 19:46 -1,2 C 87 % 1003,6 hPa 0,0 l/m 14,8 km/h (3 Bft) NO 45 -3,1 C -5,9 C
14.12.2012 19:51 -1,2 C 87 % 1003,5 hPa 0,0 l/m 10,4 km/h (2 Bft) NO 45 -3,1 C -4,9 C
14.12.2012 19:56 -1,1 C 86 % 1003,4 hPa 0,0 l/m 8,3 km/h (2 Bft) NO 45 -3,1 C -4,1 C
14.12.2012 20:01 -1,1 C 86 % 1003,4 hPa 0,0 l/m 5,8 km/h (2 Bft) NO 45 -3,1 C -3,2 C
14.12.2012 20:06 -1,1 C 86 % 1003,1 hPa 0,0 l/m 7,2 km/h (2 Bft) NO 45 -3,1 C -3,8 C
14.12.2012 20:11 -1,1 C 86 % 1003,0 hPa 0,0 l/m 13,7 km/h (3 Bft) NO 45 -3,1 C -5,5 C
14.12.2012 20:16 -1,1 C 86 % 1003,0 hPa 0,0 l/m 6,8 km/h (2 Bft) NO 45 -3,1 C -3,6 C
14.12.2012 20:21 -1,1 C 86 % 1002,9 hPa 0,0 l/m 12,6 km/h (3 Bft) NO 45 -3,1 C -5,3 C
14.12.2012 20:26 -1,1 C 86 % 1002,8 hPa 0,0 l/m 14,4 km/h (3 Bft) NO 45 -3,1 C -5,7 C
14.12.2012 20:31 -1,0 C 86 % 1002,7 hPa 0,0 l/m 10,4 km/h (2 Bft) NO 45 -3,0 C -4,6 C
14.12.2012 20:36 -1,0 C 86 % 1002,3 hPa 0,0 l/m 5,4 km/h (1 Bft) NO 45 -3,0 C -2,9 C
14.12.2012 20:41 -0,9 C 86 % 1002,2 hPa 0,0 l/m 17,3 km/h (3 Bft) NO 45 -2,9 C -5,9 C
14.12.2012 20:46 -0,9 C 86 % 1002,2 hPa 0,0 l/m 8,3 km/h (2 Bft) NO 45 -2,9 C -3,9 C
14.12.2012 20:51 -0,9 C 86 % 1002,0 hPa 0,0 l/m 6,1 km/h (2 Bft) NO 45 -2,9 C -3,1 C
14.12.2012 20:56 -0,9 C 86 % 1002,0 hPa 0,0 l/m 9,4 km/h (2 Bft) NO 45 -2,9 C -4,2 C
14.12.2012 21:01 -0,8 C 86 % 1001,9 hPa 0,0 l/m 8,3 km/h (2 Bft) NO 45 -2,8 C -3,8 C
14.12.2012 21:06 -0,8 C 86 % 1001,6 hPa 0,0 l/m 10,8 km/h (2 Bft) NO 45 -2,8 C -4,5 C
14.12.2012 21:11 -0,8 C 86 % 1001,6 hPa 0,0 l/m 19,1 km/h (3 Bft) NO 45 -2,8 C -6,1 C
14.12.2012 21:16 -0,7 C 86 % 1001,5 hPa 0,0 l/m 18,4 km/h (3 Bft) NO 45 -2,7 C -5,9 C
14.12.2012 21:21 -0,7 C 86 % 1001,4 hPa 0,0 l/m 13,3 km/h (3 Bft) NO 45 -2,7 C -4,9 C
14.12.2012 21:26 -0,7 C 86 % 1001,3 hPa 0,0 l/m 8,6 km/h (2 Bft) NO 45 -2,7 C -3,7 C
14.12.2012 21:31 -0,7 C 86 % 1001,3 hPa 0,0 l/m 5,0 km/h (1 Bft) NO 45 -2,7 C -2,4 C
14.12.2012 21:36 -0,7 C 86 % 1001,4 hPa 0,0 l/m 17,6 km/h (3 Bft) NO 45 -2,7 C -5,7 C
14.12.2012 21:41 -0,7 C 86 % 1001,6 hPa 0,0 l/m 11,5 km/h (2 Bft) NO 45 -2,7 C -4,5 C
14.12.2012 21:46 -0,7 C 85 % 1001,5 hPa 0,0 l/m 13,7 km/h (3 Bft) NO 45 -2,9 C -5,0 C
14.12.2012 21:51 -0,6 C 85 % 1001,2 hPa 0,0 l/m 13,3 km/h (3 Bft) NO 45 -2,8 C -4,8 C
14.12.2012 21:56 -0,6 C 85 % 1001,4 hPa 0,0 l/m 13,7 km/h (3 Bft) NO 45 -2,8 C -4,9 C
14.12.2012 22:01 -0,6 C 85 % 1001,5 hPa 0,0 l/m 7,6 km/h (2 Bft) NO 45 -2,8 C -3,3 C
14.12.2012 22:06 -0,6 C 85 % 1001,5 hPa 0,0 l/m 14,4 km/h (3 Bft) NO 45 -2,8 C -5,0 C
14.12.2012 22:11 -0,6 C 85 % 1001,5 hPa 0,0 l/m 2,5 km/h (1 Bft) NO 45 -2,8 C -0,6 C
14.12.2012 22:16 -0,5 C 85 % 1001,3 hPa 0,0 l/m 8,3 km/h (2 Bft) NO 45 -2,7 C -3,4 C
14.12.2012 22:21 -0,5 C 85 % 1001,2 hPa 0,0 l/m 10,1 km/h (2 Bft) NO 45 -2,7 C -3,9 C
14.12.2012 22:26 -0,4 C 85 % 1001,3 hPa 0,0 l/m 4,0 km/h (1 Bft) NO 45 -2,6 C -0,4 C
14.12.2012 22:31 -0,4 C 84 % 1001,1 hPa 0,0 l/m 10,8 km/h (2 Bft) NO 45 -2,8 C -4,0 C
14.12.2012 22:36 -0,4 C 84 % 1001,3 hPa 0,0 l/m 10,4 km/h (2 Bft) NO 45 -2,8 C -3,9 C
14.12.2012 22:41 -0,4 C 85 % 1001,0 hPa 0,0 l/m 16,9 km/h (3 Bft) NO 45 -2,6 C -5,3 C
14.12.2012 22:46 -0,3 C 85 % 1000,9 hPa 0,0 l/m 12,2 km/h (2 Bft) NO 45 -2,5 C -4,2 C
14.12.2012 22:51 -0,2 C 85 % 1000,8 hPa 0,0 l/m 12,6 km/h (3 Bft) NO 45 -2,4 C -4,2 C
14.12.2012 22:56 -0,2 C 85 % 1000,6 hPa 0,0 l/m 12,2 km/h (2 Bft) NO 45 -2,4 C -4,1 C
14.12.2012 23:01 -0,2 C 85 % 1000,5 hPa 0,0 l/m 19,8 km/h (3 Bft) NO 45 -2,4 C -5,5 C
14.12.2012 23:06 -0,1 C 85 % 1000,4 hPa 0,0 l/m 6,5 km/h (2 Bft) NO 45 -2,3 C -2,3 C
14.12.2012 23:11 -0,1 C 86 % 1000,2 hPa 0,0 l/m 19,4 km/h (3 Bft) NO 45 -2,2 C -5,3 C
14.12.2012 23:16 -0,1 C 86 % 1000,2 hPa 0,0 l/m 14,4 km/h (3 Bft) NO 45 -2,2 C -4,4 C
14.12.2012 23:21 -0,1 C 86 % 1000,3 hPa 0,0 l/m 15,1 km/h (3 Bft) NO 45 -2,2 C -4,6 C
14.12.2012 23:26 -0,1 C 87 % 1000,3 hPa 0,0 l/m 13,7 km/h (3 Bft) NO 45 -2,0 C -4,3 C
14.12.2012 23:31 -0,1 C 87 % 1000,3 hPa 0,0 l/m 13,7 km/h (3 Bft) NO 45 -2,0 C -4,3 C
14.12.2012 23:36 0,1 C 87 % 1000,3 hPa 0,0 l/m 19,1 km/h (3 Bft) NO 45 -1,8 C -5,0 C
14.12.2012 23:41 0,1 C 87 % 1000,0 hPa 0,0 l/m 9,0 km/h (2 Bft) NO 45 -1,8 C -2,9 C
14.12.2012 23:46 0,1 C 88 % 1000,0 hPa 0,0 l/m 10,4 km/h (2 Bft) NO 45 -1,6 C -3,3 C
14.12.2012 23:51 0,2 C 88 % 999,9 hPa 0,0 l/m 12,2 km/h (2 Bft) NO 45 -1,5 C -3,6 C
14.12.2012 23:56 0,2 C 88 % 999,7 hPa 0,0 l/m 2,9 km/h (1 Bft) NO 45 -1,5 C 0,2 C
_ Min-Zeit 03:26 22:31 23:56 - 04:11 - - 03:31 01:36
Minimum _ -4,7 C 84 % 999,7 hPa - 1,4 km/h (1 Bft) - - -6,2 C -9,4 C
_ Max-Zeit 23:51 00:01 00:06 00:01 23:01 - - 23:51 23:56
Maximum _ 0,2 C 90 % 1012,1 hPa 0,0 l/m 19,8 km/h
NO (3 Bft)
- - -1,5 C 0,2 C
Durchschnitt _ -2,1 C 88 % 1007,7 hPa #0,0 l/m 8,8 km/h (2 Bft) N-NO - -3,8 C -5,1 C
(c) by David Heller